Time;durP1;ratioP1;P1;durP2;ratioP2;P2;SDS_P1;SDS_P2;PMS_P1;PMS_P2;Temp;Humidity;BMP_temperature;BMP_pressure;BME280_temperature;BME280_humidity;BME280_pressure;Samples;Min_cycle;Max_cycle;Signal;HPM_P1;HPM_P2
2024/03/26 00:02:05;;;;;;;;;13.00;10.00;;;;;;;;5049405;28;9463;-72
2024/03/26 00:04:30;;;;;;;;;9.25;9.00;;;;;;;;5049731;28;8809;-74
2024/03/26 00:06:56;;;;;;;;;8.00;8.00;;;;;;;;5049550;28;8782;-73
2024/03/26 00:09:21;;;;;;;;;9.00;6.75;;;;;;;;5048301;28;8805;-72
2024/03/26 00:11:47;;;;;;;;;17.00;11.50;;;;;;;;5049362;28;8789;-73
2024/03/26 00:14:12;;;;;;;;;11.50;10.00;;;;;;;;5049399;28;8809;-74
2024/03/26 00:16:37;;;;;;;;;12.50;9.50;;;;;;;;5049503;28;8766;-73
2024/03/26 00:19:03;;;;;;;;;10.50;10.00;;;;;;;;5049378;28;8877;-73
2024/03/26 00:21:28;;;;;;;;;9.25;7.50;;;;;;;;5049461;28;9539;-73
2024/03/26 00:23:53;;;;;;;;;10.25;10.00;;;;;;;;5049360;28;9511;-73
2024/03/26 00:26:19;;;;;;;;;9.50;8.75;;;;;;;;5049400;28;8777;-73
2024/03/26 00:28:44;;;;;;;;;10.25;9.00;;;;;;;;5049371;28;8777;-74
2024/03/26 00:31:09;;;;;;;;;13.00;10.00;;;;;;;;5049459;28;8777;-74
2024/03/26 00:33:34;;;;;;;;;9.00;9.00;;;;;;;;5049258;28;8781;-73
2024/03/26 00:36:00;;;;;;;;;6.00;6.00;;;;;;;;5049333;28;8812;-73
2024/03/26 00:38:25;;;;;;;;;8.50;8.50;;;;;;;;5047863;28;8789;-74
2024/03/26 00:40:50;;;;;;;;;10.25;9.00;;;;;;;;5049408;28;8820;-72
2024/03/26 00:43:15;;;;;;;;;10.00;7.50;;;;;;;;5049240;28;8813;-73
2024/03/26 00:45:41;;;;;;;;;9.00;6.75;;;;;;;;5049346;28;8901;-73
2024/03/26 00:48:06;;;;;;;;;8.50;8.00;;;;;;;;5049390;28;8866;-73
2024/03/26 00:50:31;;;;;;;;;9.25;9.25;;;;;;;;5049281;28;8940;-73
2024/03/26 00:52:56;;;;;;;;;7.50;7.50;;;;;;;;5049359;28;8954;-73
2024/03/26 00:55:21;;;;;;;;;10.00;9.75;;;;;;;;5049083;28;8804;-72
2024/03/26 00:57:47;;;;;;;;;14.25;9.50;;;;;;;;5052079;28;8825;-73
2024/03/26 01:00:13;;;;;;;;;11.00;10.75;;;;;;;;5052793;28;8912;-73
2024/03/26 01:02:39;;;;;;;;;7.50;6.75;;;;;;;;5052601;28;8848;-73
2024/03/26 01:05:05;;;;;;;;;10.00;9.50;;;;;;;;5052488;28;11427;-72
2024/03/26 01:07:30;;;;;;;;;10.25;9.00;;;;;;;;5052616;28;9452;-73
2024/03/26 01:09:55;;;;;;;;;12.25;8.25;;;;;;;;5052360;28;11458;-72
2024/03/26 01:12:21;;;;;;;;;14.00;10.00;;;;;;;;5050958;28;9638;-73
2024/03/26 01:14:46;;;;;;;;;11.75;10.00;;;;;;;;5052524;28;8866;-73
2024/03/26 01:17:11;;;;;;;;;10.50;9.00;;;;;;;;5052612;28;8828;-73
2024/03/26 01:19:36;;;;;;;;;9.75;9.50;;;;;;;;5052369;28;8805;-72
2024/03/26 01:22:02;;;;;;;;;10.25;9.25;;;;;;;;5052310;28;8832;-72
2024/03/26 01:24:27;;;;;;;;;11.75;10.25;;;;;;;;5052220;28;8809;-73
2024/03/26 01:26:52;;;;;;;;;9.25;9.00;;;;;;;;5052090;28;8781;-72
2024/03/26 01:29:17;;;;;;;;;13.00;13.00;;;;;;;;5052345;28;8816;-73
2024/03/26 01:31:43;;;;;;;;;14.25;10.75;;;;;;;;5052011;28;8858;-73
2024/03/26 01:34:08;;;;;;;;;10.50;9.75;;;;;;;;5052046;28;8809;-73
2024/03/26 01:36:33;;;;;;;;;15.00;10.25;;;;;;;;5051983;28;8762;-73
2024/03/26 01:38:58;;;;;;;;;13.50;9.00;;;;;;;;5052031;28;8793;-73
2024/03/26 01:41:24;;;;;;;;;9.00;8.50;;;;;;;;5051884;28;8785;-73
2024/03/26 01:43:49;;;;;;;;;14.75;11.00;;;;;;;;5051790;28;8796;-73
2024/03/26 01:46:14;;;;;;;;;10.00;9.00;;;;;;;;5051910;28;8773;-73
2024/03/26 01:48:40;;;;;;;;;10.50;10.25;;;;;;;;5051765;28;8816;-73
2024/03/26 01:51:05;;;;;;;;;14.00;13.25;;;;;;;;5051758;28;9454;-73
2024/03/26 01:53:31;;;;;;;;;16.00;13.50;;;;;;;;5051776;28;9634;-74
2024/03/26 01:55:57;;;;;;;;;14.00;14.00;;;;;;;;5051629;28;8896;-74
2024/03/26 01:58:22;;;;;;;;;20.25;16.00;;;;;;;;5051686;28;8789;-74
2024/03/26 02:00:48;;;;;;;;;14.50;13.25;;;;;;;;5051571;28;9598;-73
2024/03/26 02:03:14;;;;;;;;;13.00;12.00;;;;;;;;5051690;28;8917;-74
2024/03/26 02:05:39;;;;;;;;;9.00;8.75;;;;;;;;5050107;28;11491;-73
2024/03/26 02:08:04;;;;;;;;;17.50;13.75;;;;;;;;5049930;28;8817;-73
2024/03/26 02:10:30;;;;;;;;;17.50;14.00;;;;;;;;5049846;28;8802;-73
2024/03/26 02:12:55;;;;;;;;;13.75;13.00;;;;;;;;5050145;28;8797;-72
2024/03/26 02:15:21;;;;;;;;;15.25;14.25;;;;;;;;5051393;28;8777;-73
2024/03/26 02:17:46;;;;;;;;;16.50;15.75;;;;;;;;5050960;28;8831;-73
2024/03/26 02:20:12;;;;;;;;;18.50;17.50;;;;;;;;5050234;28;8841;-72
2024/03/26 02:22:38;;;;;;;;;19.75;17.25;;;;;;;;5049622;28;8850;-73
2024/03/26 02:25:03;;;;;;;;;19.75;19.00;;;;;;;;5049699;28;8830;-73
2024/03/26 02:27:28;;;;;;;;;14.00;13.50;;;;;;;;5051284;28;8785;-73
2024/03/26 02:29:54;;;;;;;;;16.75;16.75;;;;;;;;5050814;28;8785;-73
2024/03/26 02:32:19;;;;;;;;;14.75;14.75;;;;;;;;5049641;28;8809;-73
2024/03/26 02:34:44;;;;;;;;;19.50;17.25;;;;;;;;5050972;28;8787;-74
2024/03/26 02:37:09;;;;;;;;;16.75;15.00;;;;;;;;5050848;28;8797;-73
2024/03/26 02:39:35;;;;;;;;;18.75;16.00;;;;;;;;5050681;28;8886;-73
2024/03/26 02:42:00;;;;;;;;;17.25;15.50;;;;;;;;5050791;28;8818;-73
2024/03/26 02:44:26;;;;;;;;;16.00;14.00;;;;;;;;5050703;28;8813;-73
2024/03/26 02:46:51;;;;;;;;;15.25;12.75;;;;;;;;5050632;28;8812;-74
2024/03/26 02:49:16;;;;;;;;;20.00;18.50;;;;;;;;5050731;28;8823;-73
2024/03/26 02:51:41;;;;;;;;;10.75;10.00;;;;;;;;5050613;28;8801;-73
2024/03/26 02:54:07;;;;;;;;;18.00;16.50;;;;;;;;5050400;28;8986;-73
2024/03/26 02:56:32;;;;;;;;;17.75;16.00;;;;;;;;5050388;28;8804;-73
2024/03/26 02:58:58;;;;;;;;;17.50;11.75;;;;;;;;5049046;28;8819;-73
2024/03/26 03:01:23;;;;;;;;;16.00;14.50;;;;;;;;5049219;28;8836;-73
2024/03/26 03:03:49;;;;;;;;;18.25;17.50;;;;;;;;5050161;28;8839;-73
2024/03/26 03:06:14;;;;;;;;;15.00;14.50;;;;;;;;5050156;28;8903;-74
2024/03/26 03:08:39;;;;;;;;;20.25;15.00;;;;;;;;5050092;28;8804;-74
2024/03/26 03:11:05;;;;;;;;;16.00;14.00;;;;;;;;5049988;28;8781;-73
2024/03/26 03:13:30;;;;;;;;;19.75;16.25;;;;;;;;5050024;28;8801;-73
2024/03/26 03:15:55;;;;;;;;;19.00;16.25;;;;;;;;5050394;28;8936;-72
2024/03/26 03:18:21;;;;;;;;;19.25;19.00;;;;;;;;5050426;28;8762;-73
2024/03/26 03:20:46;;;;;;;;;22.75;17.75;;;;;;;;5049595;28;8773;-73
2024/03/26 03:23:12;;;;;;;;;20.00;18.50;;;;;;;;5048497;28;9047;-73
2024/03/26 03:25:38;;;;;;;;;23.75;20.50;;;;;;;;5049853;28;8785;-74
2024/03/26 03:28:03;;;;;;;;;17.75;17.75;;;;;;;;5048738;28;8827;-74
2024/03/26 03:30:29;;;;;;;;;18.25;17.50;;;;;;;;5049871;28;8789;-74
2024/03/26 03:32:54;;;;;;;;;23.00;19.25;;;;;;;;5049863;28;8808;-74
2024/03/26 03:35:19;;;;;;;;;24.75;20.25;;;;;;;;5049943;28;8774;-73
2024/03/26 03:37:45;;;;;;;;;21.25;17.75;;;;;;;;5049794;28;9551;-74
2024/03/26 03:40:10;;;;;;;;;18.75;16.75;;;;;;;;5049692;28;8773;-73
2024/03/26 03:42:35;;;;;;;;;18.25;17.25;;;;;;;;5049764;28;8936;-73
2024/03/26 03:45:01;;;;;;;;;20.00;19.00;;;;;;;;5049669;28;8789;-72
2024/03/26 03:47:26;;;;;;;;;22.25;20.00;;;;;;;;5049670;28;9610;-72
2024/03/26 03:49:51;;;;;;;;;19.25;18.00;;;;;;;;5049706;28;8785;-72
2024/03/26 03:52:16;;;;;;;;;22.25;19.50;;;;;;;;5049579;28;9546;-72
2024/03/26 03:54:42;;;;;;;;;21.00;21.00;;;;;;;;5049849;28;8815;-72
2024/03/26 03:57:07;;;;;;;;;15.00;12.75;;;;;;;;5048376;28;8816;-73
2024/03/26 03:59:32;;;;;;;;;20.75;19.25;;;;;;;;5049796;28;8813;-73
2024/03/26 04:01:58;;;;;;;;;21.25;19.75;;;;;;;;5049552;28;8805;-73
2024/03/26 04:04:23;;;;;;;;;24.50;20.25;;;;;;;;5049576;28;8855;-73
2024/03/26 04:06:48;;;;;;;;;18.00;18.00;;;;;;;;5050009;28;8777;-74
2024/03/26 04:09:14;;;;;;;;;20.00;19.25;;;;;;;;5049641;28;8885;-74
2024/03/26 04:11:39;;;;;;;;;21.75;19.50;;;;;;;;5049865;28;8904;-74
2024/03/26 04:14:05;;;;;;;;;22.50;21.00;;;;;;;;5049940;28;8804;-73
2024/03/26 04:16:30;;;;;;;;;22.00;19.50;;;;;;;;5049659;28;8804;-74
2024/03/26 04:18:55;;;;;;;;;24.33;23.00;;;;;;;;5049736;28;8813;-73
2024/03/26 04:21:21;;;;;;;;;20.00;19.50;;;;;;;;5049570;28;8808;-74
2024/03/26 04:23:46;;;;;;;;;23.67;23.67;;;;;;;;5049255;28;8858;-74
2024/03/26 04:26:12;;;;;;;;;28.67;28.00;;;;;;;;5049369;28;8824;-75
2024/03/26 04:28:37;;;;;;;;;30.00;28.00;;;;;;;;5049492;28;8917;-74
2024/03/26 04:31:03;;;;;;;;;24.67;23.00;;;;;;;;5048325;28;8866;-74
2024/03/26 04:33:28;;;;;;;;;33.00;27.67;;;;;;;;5053089;28;8785;-74
2024/03/26 04:35:54;;;;;;;;;25.33;24.33;;;;;;;;5053381;28;8796;-74
2024/03/26 04:38:19;;;;;;;;;28.00;25.00;;;;;;;;5052891;28;8819;-74
2024/03/26 04:40:47;;;;;;;;;29.00;27.00;;;;;;;;5052995;28;8912;-75
2024/03/26 04:43:12;;;;;;;;;29.00;26.00;;;;;;;;5052888;28;8951;-74
2024/03/26 04:45:38;;;;;;;;;28.33;24.33;;;;;;;;5052738;28;12365;-73
2024/03/26 04:48:04;;;;;;;;;30.00;26.00;;;;;;;;5052964;28;8777;-74
2024/03/26 04:50:30;;;;;;;;;26.33;26.00;;;;;;;;5053126;28;8785;-74
2024/03/26 04:52:56;;;;;;;;;19.00;18.00;;;;;;;;5052626;28;12224;-74
2024/03/26 04:55:21;;;;;;;;;29.00;26.33;;;;;;;;5052650;28;11588;-74
2024/03/26 04:57:47;;;;;;;;;27.33;24.33;;;;;;;;5052746;28;8785;-73
2024/03/26 05:00:13;;;;;;;;;21.00;20.00;;;;;;;;5052692;28;8785;-74
2024/03/26 05:02:39;;;;;;;;;27.00;26.33;;;;;;;;5052466;28;8805;-74
2024/03/26 05:05:06;;;;;;;;;11.33;8.33;;;;;;;;5052859;28;11513;-74
2024/03/26 05:07:34;;;;;;;;;27.33;23.67;;;;;;;;5052316;28;11534;-74
2024/03/26 05:09:59;;;;;;;;;25.33;24.00;;;;;;;;5052438;28;8895;-74
2024/03/26 05:12:25;;;;;;;;;27.00;24.33;;;;;;;;5052428;28;8935;-73
2024/03/26 05:14:50;;;;;;;;;21.33;21.33;;;;;;;;5052489;28;8770;-69
2024/03/26 05:17:15;;;;;;;;;23.33;23.00;;;;;;;;5052105;28;8817;-69
2024/03/26 05:19:41;;;;;;;;;22.67;21.33;;;;;;;;5045423;28;8808;-69
2024/03/26 05:22:06;;;;;;;;;23.00;23.00;;;;;;;;5032031;28;8930;-69
2024/03/26 05:24:32;;;;;;;;;23.25;21.75;;;;;;;;5032089;28;8942;-69
2024/03/26 05:26:58;;;;;;;;;23.67;21.67;;;;;;;;5047040;28;8793;-70
2024/03/26 05:29:23;;;;;;;;;23.00;22.25;;;;;;;;5052005;28;8900;-72
2024/03/26 19:36:53;;;;;;;;;3.50;2.25;;;;;;;;5059495;28;13440;-67
2024/03/26 19:39:19;;;;;;;;;5.75;5.50;;;;;;;;5044681;28;12228;-69
2024/03/26 19:41:44;;;;;;;;;2.75;2.75;;;;;;;;5046041;28;8958;-67
2024/03/26 19:44:09;;;;;;;;;5.00;5.00;;;;;;;;5043121;28;8808;-68
2024/03/26 19:46:35;;;;;;;;;2.00;2.00;;;;;;;;5045661;28;8889;-68
2024/03/26 19:49:00;;;;;;;;;4.00;3.00;;;;;;;;5045970;28;8823;-67
2024/03/26 19:51:26;;;;;;;;;5.50;3.00;;;;;;;;5044965;28;8787;-68
2024/03/26 19:53:51;;;;;;;;;3.50;3.50;;;;;;;;5045889;28;8847;-68
2024/03/26 19:56:17;;;;;;;;;2.00;2.00;;;;;;;;5046572;28;8843;-69
2024/03/26 19:58:42;;;;;;;;;4.00;2.25;;;;;;;;5046689;28;8824;-70
2024/03/26 20:01:08;;;;;;;;;3.00;3.00;;;;;;;;5046741;28;9489;-72
2024/03/26 20:03:34;;;;;;;;;5.00;3.00;;;;;;;;5044886;28;8934;-71
2024/03/26 20:05:59;;;;;;;;;3.50;2.00;;;;;;;;5043926;28;11463;-70
2024/03/26 20:08:25;;;;;;;;;3.50;2.25;;;;;;;;5045410;28;11649;-69
2024/03/26 20:10:50;;;;;;;;;6.25;3.50;;;;;;;;5041824;28;8901;-70
2024/03/26 20:13:15;;;;;;;;;29.00;23.50;;;;;;;;5045543;28;8803;-70
2024/03/26 20:15:41;;;;;;;;;8.25;6.75;;;;;;;;5045719;28;8843;-71
2024/03/26 20:18:07;;;;;;;;;4.00;3.00;;;;;;;;5046536;28;8804;-71
2024/03/26 20:20:32;;;;;;;;;4.00;4.00;;;;;;;;5045164;28;8812;-69
2024/03/26 20:22:57;;;;;;;;;2.00;2.00;;;;;;;;5045824;28;9525;-72
2024/03/26 20:25:25;;;;;;;;;5.00;3.00;;;;;;;;5045233;28;8808;-72
2024/03/26 20:27:53;;;;;;;;;6.75;5.00;;;;;;;;5045511;28;8815;-72
2024/03/26 20:30:19;;;;;;;;;5.00;5.00;;;;;;;;5041922;28;11420;-71
2024/03/26 20:32:44;;;;;;;;;3.00;3.00;;;;;;;;5044223;28;11439;-71
2024/03/26 20:35:10;;;;;;;;;3.50;3.00;;;;;;;;5044956;28;8844;-73
2024/03/26 20:37:35;;;;;;;;;5.75;5.25;;;;;;;;5044644;28;8817;-73
2024/03/26 20:40:00;;;;;;;;;6.50;6.00;;;;;;;;5044105;28;8934;-70
2024/03/26 20:42:25;;;;;;;;;9.00;5.00;;;;;;;;5045648;28;8922;-74
2024/03/26 20:44:53;;;;;;;;;7.00;5.50;;;;;;;;5045708;28;8804;-72
2024/03/26 20:47:18;;;;;;;;;7.25;5.25;;;;;;;;5036237;28;8804;-77
2024/03/26 20:49:43;;;;;;;;;5.25;3.00;;;;;;;;5025828;28;11504;-70
2024/03/26 20:52:11;;;;;;;;;3.50;3.00;;;;;;;;5030097;28;8808;-71
2024/03/26 20:54:36;;;;;;;;;5.00;2.00;;;;;;;;5029447;28;9536;-70
2024/03/26 20:57:04;;;;;;;;;2.00;2.00;;;;;;;;5031237;28;11420;-70
2024/03/26 20:59:29;;;;;;;;;0.50;0.50;;;;;;;;5031331;28;8822;-71
2024/03/26 21:01:55;;;;;;;;;2.00;2.00;;;;;;;;5031244;28;11425;-71
2024/03/26 21:04:20;;;;;;;;;3.00;3.00;;;;;;;;5031610;28;8808;-70
2024/03/26 21:06:45;;;;;;;;;4.50;4.50;;;;;;;;5029515;28;8924;-71
2024/03/26 21:09:11;;;;;;;;;3.50;3.50;;;;;;;;5029655;28;8890;-71
2024/03/26 21:11:36;;;;;;;;;5.25;5.25;;;;;;;;5031537;28;8799;-71
2024/03/26 21:14:02;;;;;;;;;4.00;3.50;;;;;;;;5032026;28;8796;-70
2024/03/26 21:16:27;;;;;;;;;5.00;5.00;;;;;;;;5031675;28;8831;-72
2024/03/26 21:18:53;;;;;;;;;4.00;4.00;;;;;;;;5031738;28;11424;-71
2024/03/26 21:21:19;;;;;;;;;5.00;5.00;;;;;;;;5031790;28;8819;-69
2024/03/26 21:23:47;;;;;;;;;4.00;4.00;;;;;;;;5031398;28;8819;-70
2024/03/26 21:26:13;;;;;;;;;6.00;6.00;;;;;;;;5029429;28;11563;-70
2024/03/26 21:28:38;;;;;;;;;5.00;5.00;;;;;;;;5030567;28;11419;-70
2024/03/26 21:31:11;;;;;;;;;6.25;4.50;;;;;;;;5031003;28;9568;-69
2024/03/26 21:33:36;;;;;;;;;2.25;2.25;;;;;;;;5031033;28;9563;-72
2024/03/26 21:36:02;;;;;;;;;3.50;3.50;;;;;;;;5029398;28;11445;-69
2024/03/26 21:38:27;;;;;;;;;6.00;5.50;;;;;;;;5029757;28;8798;-69
2024/03/26 21:40:58;;;;;;;;;7.25;5.25;;;;;;;;5025782;28;9730;-70
2024/03/26 21:43:27;;;;;;;;;8.75;6.00;;;;;;;;5011682;28;8798;-70
2024/03/26 21:45:52;;;;;;;;;5.00;5.00;;;;;;;;5022565;28;11455;-70
2024/03/26 21:48:18;;;;;;;;;3.75;3.00;;;;;;;;5030976;28;11406;-70
2024/03/26 21:50:43;;;;;;;;;3.00;3.00;;;;;;;;5031013;28;8788;-70
2024/03/26 21:53:09;;;;;;;;;6.75;5.50;;;;;;;;5030806;28;8792;-70
2024/03/26 21:55:34;;;;;;;;;5.25;5.25;;;;;;;;5031053;28;8843;-70
2024/03/26 21:58:00;;;;;;;;;5.25;5.00;;;;;;;;5029062;28;8811;-71
2024/03/26 22:00:25;;;;;;;;;2.50;2.50;;;;;;;;5029081;28;11417;-70
2024/03/26 22:02:51;;;;;;;;;3.00;2.75;;;;;;;;5030919;28;8803;-70
2024/03/26 22:05:16;;;;;;;;;3.00;3.00;;;;;;;;5030602;28;8820;-70
2024/03/26 22:07:41;;;;;;;;;2.25;2.25;;;;;;;;5030723;28;8824;-70
2024/03/26 22:10:09;;;;;;;;;2.00;2.00;;;;;;;;5025436;28;8872;-70
2024/03/26 22:12:35;;;;;;;;;4.00;4.00;;;;;;;;5019840;28;8798;-70
2024/03/26 22:15:00;;;;;;;;;3.50;3.50;;;;;;;;5020101;28;11464;-76
2024/03/26 22:17:26;;;;;;;;;5.00;5.00;;;;;;;;5036196;28;8831;-69
2024/03/26 22:19:51;;;;;;;;;5.75;5.50;;;;;;;;5030039;28;8827;-70
2024/03/26 22:22:17;;;;;;;;;6.75;5.75;;;;;;;;5030955;28;11483;-69
2024/03/26 22:24:45;;;;;;;;;6.00;5.25;;;;;;;;5030646;28;8838;-69
2024/03/26 22:27:11;;;;;;;;;7.75;7.75;;;;;;;;5029384;28;8796;-68
2024/03/26 22:29:37;;;;;;;;;11.25;10.50;;;;;;;;5030334;28;11504;-69
2024/03/26 22:32:02;;;;;;;;;10.00;10.00;;;;;;;;5030629;28;11711;-68
2024/03/26 22:34:28;;;;;;;;;8.25;7.00;;;;;;;;5030426;28;8784;-70
2024/03/26 22:36:55;;;;;;;;;6.50;6.50;;;;;;;;5030382;28;8811;-70
2024/03/26 22:39:20;;;;;;;;;6.00;6.00;;;;;;;;5030547;28;11446;-68
2024/03/26 22:41:45;;;;;;;;;5.50;5.50;;;;;;;;5030493;28;11486;-68
2024/03/26 22:44:11;;;;;;;;;6.00;4.50;;;;;;;;5030667;28;8780;-68
2024/03/26 22:46:36;;;;;;;;;6.50;6.00;;;;;;;;5029349;28;8812;-69
2024/03/26 22:49:01;;;;;;;;;7.75;5.50;;;;;;;;5030576;28;8818;-67
2024/03/26 22:51:27;;;;;;;;;8.50;8.25;;;;;;;;5030754;28;8796;-68
2024/03/26 22:53:52;;;;;;;;;7.00;7.00;;;;;;;;5030651;28;8830;-69
2024/03/26 22:56:18;;;;;;;;;10.00;10.00;;;;;;;;5030442;28;8792;-69
2024/03/26 22:58:44;;;;;;;;;10.00;9.00;;;;;;;;5029208;28;8796;-68
2024/03/26 23:01:16;;;;;;;;;11.00;9.00;;;;;;;;5030550;28;11542;-68
2024/03/26 23:03:42;;;;;;;;;11.50;9.00;;;;;;;;5030271;28;8833;-68
2024/03/26 23:06:07;;;;;;;;;9.00;8.00;;;;;;;;5029851;28;11497;-67
2024/03/26 23:08:32;;;;;;;;;12.00;9.00;;;;;;;;5030064;28;8779;-68
2024/03/26 23:10:58;;;;;;;;;9.25;7.00;;;;;;;;5029699;28;9522;-68
2024/03/26 23:13:24;;;;;;;;;8.75;7.00;;;;;;;;5030013;28;8787;-67
2024/03/26 23:15:50;;;;;;;;;9.25;8.25;;;;;;;;5030453;28;8796;-67
2024/03/26 23:18:16;;;;;;;;;7.75;7.25;;;;;;;;5028410;28;11544;-68
2024/03/26 23:20:42;;;;;;;;;8.25;6.75;;;;;;;;5028179;28;8893;-67
2024/03/26 23:23:08;;;;;;;;;10.00;8.25;;;;;;;;5029458;28;11465;-67
2024/03/26 23:25:33;;;;;;;;;7.00;7.00;;;;;;;;5029545;28;8831;-67
2024/03/26 23:27:59;;;;;;;;;9.00;6.00;;;;;;;;5029616;28;8796;-67
2024/03/26 23:30:24;;;;;;;;;7.50;6.50;;;;;;;;5029358;28;8780;-67
2024/03/26 23:32:49;;;;;;;;;8.00;8.00;;;;;;;;5028228;28;8803;-67
2024/03/26 23:35:15;;;;;;;;;8.25;8.25;;;;;;;;5029346;28;8935;-67
2024/03/26 23:37:40;;;;;;;;;7.00;7.00;;;;;;;;5029567;28;8838;-67
2024/03/26 23:40:07;;;;;;;;;7.00;7.00;;;;;;;;5029652;28;8788;-68
2024/03/26 23:42:33;;;;;;;;;6.00;6.00;;;;;;;;5029759;28;8894;-67
2024/03/26 23:44:58;;;;;;;;;7.00;7.00;;;;;;;;5029551;28;11607;-67
2024/03/26 23:47:25;;;;;;;;;11.25;8.00;;;;;;;;5029626;28;8880;-68
2024/03/26 23:49:50;;;;;;;;;9.00;9.00;;;;;;;;5029509;28;8784;-67
2024/03/26 23:52:15;;;;;;;;;11.00;10.00;;;;;;;;5029526;28;11580;-67
2024/03/26 23:54:41;;;;;;;;;7.00;6.75;;;;;;;;5029675;28;8800;-67
2024/03/26 23:57:06;;;;;;;;;8.75;7.00;;;;;;;;5029900;28;9482;-67
2024/03/26 23:59:32;;;;;;;;;6.75;6.00;;;;;;;;5029706;28;8815;-67
